Lecompton, Kansas
Current Conditions -  °F | °C
As of 11:52 AM on Saturday 20 Dec 2014 (Local Time) from KLWC Reporting Station
Clear Clear  
Wind Chill: 39°   Ceiling: Unl
Heat Index: 44°   Visibility: 9mi
Dew Point: 36°   Wind: 10mph
Humidity: 73%   Direction: 210°SSW
Pressure: 30.15"   Gusts: NA
Location:  39.04°N, 95.39°W
Report Text: KLWC 201752Z AUTO 21009KT 9SM CLR 07/02 A3015 RMK AO2 SLP214 T00670022 10067 20000 58008
Loading
Personal Weather Stations






























Interactive Weather Map New forecast layout! Learn more

10-Day Weather Forecast

Advertisements
Track Severe Weather on mobile